createdAt,value
2019-02-28T00:00:25.268Z,4.37
2019-02-28T00:02:53.860Z,3.20
2019-02-28T00:05:21.067Z,4.30
2019-02-28T00:07:49.623Z,6.55
2019-02-28T00:10:16.940Z,4.17
2019-02-28T00:12:45.276Z,4.33
2019-02-28T00:15:12.754Z,3.47
2019-02-28T00:17:42.489Z,5.62
2019-02-28T00:20:08.584Z,4.40
2019-02-28T00:22:35.587Z,6.12
2019-02-28T00:25:04.235Z,4.00
2019-02-28T00:27:32.024Z,6.55
2019-02-28T00:29:59.007Z,4.17
2019-02-28T00:32:25.931Z,7.60
2019-02-28T00:34:53.945Z,4.90
2019-02-28T00:37:20.952Z,6.92
2019-02-28T00:39:47.947Z,3.62
2019-02-28T00:42:17.690Z,5.80
2019-02-28T00:44:44.278Z,5.90
2019-02-28T00:47:12.416Z,5.15
2019-02-28T00:49:39.447Z,8.55
2019-02-28T00:52:06.441Z,6.90
2019-02-28T00:54:33.513Z,4.30
2019-02-28T00:57:00.533Z,4.05
2019-02-28T00:59:27.455Z,5.67
2019-02-28T01:01:54.364Z,11.95
2019-02-28T01:04:21.408Z,5.75
2019-02-28T01:06:50.217Z,6.50
2019-02-28T01:09:18.333Z,6.35
2019-02-28T01:11:45.647Z,8.00
2019-02-28T01:14:12.737Z,5.62
2019-02-28T01:16:41.419Z,6.75
2019-02-28T01:19:09.093Z,5.28
2019-02-28T01:21:37.035Z,4.95
2019-02-28T01:24:04.108Z,6.10
2019-02-28T01:26:32.870Z,5.12
2019-02-28T01:29:02.074Z,5.87
2019-02-28T01:31:29.706Z,7.83
2019-02-28T01:33:58.776Z,5.55
2019-02-28T01:36:25.559Z,4.80
2019-02-28T01:38:57.442Z,10.23
2019-02-28T01:41:21.641Z,6.37
2019-02-28T01:43:48.535Z,5.35
2019-02-28T01:46:17.222Z,5.20
2019-02-28T01:48:44.382Z,5.62
2019-02-28T01:51:11.395Z,5.17
2019-02-28T01:53:38.399Z,8.08
2019-02-28T01:56:06.755Z,7.72
2019-02-28T01:58:33.895Z,4.62
2019-02-28T02:01:01.206Z,8.68
2019-02-28T02:03:28.228Z,3.95
2019-02-28T02:05:55.176Z,4.65
2019-02-28T02:08:22.088Z,4.92
2019-02-28T02:10:54.981Z,5.85
2019-02-28T02:13:18.677Z,4.33
2019-02-28T02:15:45.680Z,6.25
2019-02-28T02:18:12.618Z,6.70
2019-02-28T02:20:39.686Z,5.85
2019-02-28T02:23:06.670Z,4.33
2019-02-28T02:25:37.274Z,7.67
2019-02-28T02:28:02.530Z,7.42
2019-02-28T02:30:29.577Z,5.08
2019-02-28T02:32:56.639Z,9.80
2019-02-28T02:35:24.674Z,6.97
2019-02-28T02:37:51.809Z,12.53
2019-02-28T02:40:22.932Z,9.28
2019-02-28T02:42:49.703Z,6.35
2019-02-28T02:45:16.466Z,5.60
2019-02-28T02:47:43.621Z,8.13
2019-02-28T02:50:12.142Z,8.50
2019-02-28T02:52:39.151Z,11.30
2019-02-28T02:55:06.566Z,4.92
2019-02-28T02:57:33.562Z,7.90
2019-02-28T03:00:01.646Z,7.80
2019-02-28T03:02:33.089Z,9.65
2019-02-28T03:04:58.546Z,9.60
2019-02-28T03:07:27.472Z,5.15
2019-02-28T03:09:54.555Z,5.42
2019-02-28T03:12:21.469Z,7.78
2019-02-28T03:14:50.369Z,6.65
2019-02-28T03:17:17.349Z,5.55
2019-02-28T03:19:44.337Z,7.70
2019-02-28T03:22:11.227Z,9.10
2019-02-28T03:24:38.288Z,5.10
2019-02-28T03:27:07.107Z,8.18
2019-02-28T03:29:34.162Z,12.70
2019-02-28T03:32:01.064Z,9.10
2019-02-28T03:34:28.150Z,6.10
2019-02-28T03:36:57.163Z,6.85
2019-02-28T03:39:25.873Z,7.75
2019-02-28T03:41:54.070Z,8.85
2019-02-28T03:44:21.883Z,9.10
2019-02-28T03:46:49.026Z,6.40
2019-02-28T03:49:15.964Z,7.83
2019-02-28T03:51:42.998Z,10.20
2019-02-28T03:54:10.027Z,5.97
2019-02-28T03:56:38.848Z,9.63
2019-02-28T03:59:05.921Z,11.73
2019-02-28T04:01:33.050Z,7.30
2019-02-28T04:04:01.759Z,8.30
2019-02-28T04:06:28.774Z,6.65
2019-02-28T04:08:55.927Z,9.00
2019-02-28T04:11:30.778Z,8.43
2019-02-28T04:13:56.046Z,8.60
2019-02-28T04:16:21.421Z,7.67
2019-02-28T04:18:48.524Z,7.15
2019-02-28T04:21:15.623Z,7.80
2019-02-28T04:23:42.601Z,10.13
2019-02-28T04:26:09.577Z,9.53
2019-02-28T04:28:36.584Z,9.18
2019-02-28T04:31:03.620Z,9.65
2019-02-28T04:33:37.521Z,9.95
2019-02-28T04:36:01.647Z,12.75
2019-02-28T04:38:28.785Z,8.48
2019-02-28T04:40:58.879Z,10.30
2019-02-28T04:43:25.680Z,11.05
2019-02-28T04:45:53.817Z,12.43
2019-02-28T04:48:20.803Z,12.93
2019-02-28T04:50:47.847Z,9.23
2019-02-28T04:53:18.878Z,11.08
2019-02-28T04:55:45.412Z,7.55
2019-02-28T04:58:12.423Z,11.38
2019-02-28T05:00:39.360Z,7.10
2019-02-28T05:03:06.352Z,11.70
2019-02-28T05:05:33.380Z,10.25
2019-02-28T05:08:05.765Z,10.15
2019-02-28T05:10:32.538Z,11.38
2019-02-28T05:12:59.604Z,11.65
2019-02-28T05:15:28.305Z,12.93
2019-02-28T05:17:55.868Z,10.45
2019-02-28T05:20:23.925Z,10.08
2019-02-28T05:22:50.887Z,12.82
2019-02-28T05:25:18.780Z,8.70
2019-02-28T05:27:45.945Z,9.80
2019-02-28T05:30:18.150Z,9.55
2019-02-28T05:32:41.710Z,13.20
2019-02-28T05:35:08.940Z,10.43
2019-02-28T05:37:37.679Z,6.62
2019-02-28T05:40:06.099Z,10.63
2019-02-28T05:42:33.804Z,9.48
2019-02-28T05:45:02.977Z,11.00
2019-02-28T05:47:32.469Z,8.80
2019-02-28T05:50:02.664Z,11.05
2019-02-28T05:52:30.559Z,8.40
2019-02-28T05:54:59.553Z,12.40
2019-02-28T05:57:28.805Z,10.55
2019-02-28T06:00:01.433Z,8.90
2019-02-28T06:02:27.541Z,21.05
2019-02-28T06:04:55.208Z,17.87
2019-02-28T06:07:22.757Z,7.60
2019-02-28T06:09:50.230Z,12.18
2019-02-28T06:12:19.947Z,8.13
2019-02-28T06:14:47.603Z,12.73
2019-02-28T06:17:17.382Z,9.90
2019-02-28T06:19:44.326Z,10.28
2019-02-28T06:22:11.410Z,10.20
2019-02-28T06:24:38.460Z,11.05
2019-02-28T06:27:06.590Z,8.68
2019-02-28T06:29:36.780Z,10.25
2019-02-28T06:32:03.213Z,10.18
2019-02-28T06:34:30.364Z,9.55
2019-02-28T06:37:00.418Z,9.40
2019-02-28T06:39:26.850Z,12.68
2019-02-28T06:41:54.646Z,11.15
2019-02-28T06:44:24.180Z,12.07
2019-02-28T06:46:50.518Z,11.63
2019-02-28T06:49:17.569Z,7.85
2019-02-28T06:51:44.607Z,12.37
2019-02-28T06:54:11.686Z,13.85
2019-02-28T06:56:38.629Z,11.48
2019-02-28T06:59:05.747Z,8.95
2019-02-28T07:01:32.740Z,10.00
2019-02-28T07:03:59.718Z,19.12
2019-02-28T07:06:26.788Z,8.98
2019-02-28T07:08:53.866Z,11.40
2019-02-28T07:11:20.913Z,11.18
2019-02-28T07:13:47.969Z,10.45
2019-02-28T07:16:15.036Z,16.35
2019-02-28T07:18:42.161Z,12.37
2019-02-28T07:21:09.193Z,14.33
2019-02-28T07:23:36.233Z,13.88
2019-02-28T07:26:03.314Z,11.90
2019-02-28T07:28:36.039Z,12.13
2019-02-28T07:30:59.269Z,10.10
2019-02-28T07:33:26.270Z,11.65
2019-02-28T07:35:53.545Z,12.63
2019-02-28T07:38:20.574Z,14.90
2019-02-28T07:40:49.587Z,14.75
2019-02-28T07:43:16.608Z,14.98
2019-02-28T07:45:43.674Z,16.93
2019-02-28T07:48:10.597Z,14.55
2019-02-28T07:50:37.631Z,16.17
2019-02-28T07:53:05.601Z,15.75
2019-02-28T07:55:33.388Z,15.63
2019-02-28T07:58:00.399Z,17.60
2019-02-28T08:00:27.368Z,11.73
2019-02-28T08:02:54.360Z,14.73
2019-02-28T08:05:21.297Z,13.18
2019-02-28T08:07:52.076Z,14.80
2019-02-28T08:10:18.279Z,17.95
2019-02-28T08:12:45.361Z,20.43
2019-02-28T08:15:15.005Z,20.05
2019-02-28T08:17:43.929Z,18.65
2019-02-28T08:20:10.853Z,19.40
2019-02-28T08:22:37.814Z,17.30
2019-02-28T08:25:07.843Z,20.35
2019-02-28T08:27:34.638Z,28.15
2019-02-28T08:30:01.607Z,26.45
2019-02-28T08:32:28.629Z,29.48
2019-02-28T08:34:58.771Z,25.60
2019-02-28T08:37:24.316Z,27.30
2019-02-28T08:39:51.217Z,27.22
2019-02-28T08:42:18.144Z,23.05
2019-02-28T08:44:45.220Z,29.63
2019-02-28T08:47:12.180Z,30.48
2019-02-28T08:49:44.667Z,25.92
2019-02-28T08:52:07.980Z,26.87
2019-02-28T08:54:34.904Z,28.10
2019-02-28T08:57:01.835Z,30.52
2019-02-28T08:59:28.818Z,27.25
2019-02-28T09:01:55.742Z,25.05
2019-02-28T09:04:22.941Z,31.90
2019-02-28T09:06:49.916Z,26.77
2019-02-28T09:09:16.784Z,32.43
2019-02-28T09:11:44.189Z,28.60
2019-02-28T09:14:11.204Z,30.10
2019-02-28T09:16:39.679Z,29.80
2019-02-28T09:19:07.074Z,26.37
2019-02-28T09:21:33.989Z,28.50
2019-02-28T09:24:00.968Z,31.63
2019-02-28T09:26:28.219Z,28.70
2019-02-28T09:28:56.768Z,31.80
2019-02-28T09:31:23.668Z,36.40
2019-02-28T09:33:50.537Z,28.23
2019-02-28T09:36:20.911Z,29.70
2019-02-28T09:38:46.262Z,33.83
2019-02-28T09:41:13.292Z,28.43
2019-02-28T09:43:40.162Z,32.03
2019-02-28T09:46:09.028Z,28.90
2019-02-28T09:48:37.294Z,35.40
2019-02-28T09:51:04.724Z,28.07
2019-02-28T09:53:31.775Z,29.90
2019-02-28T09:55:58.702Z,25.43
2019-02-28T09:58:26.180Z,27.83
2019-02-28T10:00:54.413Z,26.47
2019-02-28T10:03:21.497Z,39.33
2019-02-28T10:05:48.360Z,26.37
2019-02-28T10:08:15.273Z,31.60
2019-02-28T10:10:42.209Z,34.37
2019-02-28T10:13:09.126Z,29.63
2019-02-28T10:15:38.692Z,31.77
2019-02-28T10:18:05.316Z,32.70
2019-02-28T10:20:32.343Z,34.60
2019-02-28T10:22:59.237Z,27.10
2019-02-28T10:25:26.268Z,31.23
2019-02-28T10:27:54.587Z,31.07
2019-02-28T10:30:31.333Z,43.43
2019-02-28T10:32:50.887Z,29.60
2019-02-28T10:35:18.549Z,40.23
2019-02-28T10:37:46.037Z,31.40
2019-02-28T10:40:18.729Z,32.27
2019-02-28T10:42:50.682Z,33.23
2019-02-28T10:45:18.100Z,31.83
2019-02-28T10:47:45.062Z,32.47
2019-02-28T10:50:16.932Z,37.60
2019-02-28T10:52:43.866Z,43.17
2019-02-28T10:55:11.471Z,35.60
2019-02-28T10:57:40.615Z,33.10
2019-02-28T11:00:14.512Z,31.33
2019-02-28T11:02:41.813Z,36.00
2019-02-28T11:05:15.311Z,32.93
2019-02-28T11:07:42.499Z,32.43
2019-02-28T11:10:09.481Z,39.53
2019-02-28T11:12:37.733Z,42.20
2019-02-28T11:15:05.607Z,35.63
2019-02-28T11:17:34.167Z,32.30
2019-02-28T11:20:01.309Z,36.60
2019-02-28T11:22:31.579Z,36.13
2019-02-28T11:25:00.773Z,34.33
2019-02-28T11:27:27.591Z,32.70
2019-02-28T11:29:55.655Z,36.07
2019-02-28T11:32:22.588Z,39.93
2019-02-28T11:34:49.660Z,38.73
2019-02-28T11:37:16.525Z,41.03
2019-02-28T11:39:43.492Z,31.03
2019-02-28T11:42:10.431Z,39.37
2019-02-28T11:44:37.469Z,35.70
2019-02-28T11:47:04.486Z,35.40
2019-02-28T11:49:31.491Z,37.57
2019-02-28T11:51:58.508Z,37.67
2019-02-28T11:54:25.642Z,33.23
2019-02-28T11:56:52.586Z,39.67
2019-02-28T11:59:19.472Z,34.03
2019-02-28T12:01:48.366Z,30.03
2019-02-28T12:04:15.236Z,34.13
2019-02-28T12:06:42.144Z,37.57
2019-02-28T12:09:09.063Z,35.97
2019-02-28T12:11:36.474Z,35.37
2019-02-28T12:14:06.207Z,31.53
2019-02-28T12:16:32.987Z,31.20
2019-02-28T12:19:00.078Z,34.10
2019-02-28T12:21:27.046Z,34.57
2019-02-28T12:23:54.301Z,31.13
2019-02-28T12:26:22.930Z,28.00
2019-02-28T12:28:49.928Z,36.37
2019-02-28T12:31:17.030Z,28.60
2019-02-28T12:33:44.122Z,26.70
2019-02-28T12:36:11.294Z,28.77
2019-02-28T12:38:39.868Z,30.37
2019-02-28T12:41:06.768Z,31.47
2019-02-28T12:43:33.703Z,26.30
2019-02-28T12:46:00.834Z,31.50
2019-02-28T12:48:27.814Z,29.17
2019-02-28T12:50:54.781Z,25.37
2019-02-28T12:53:25.263Z,26.03
2019-02-28T12:55:50.846Z,31.97
2019-02-28T12:58:17.834Z,22.23
2019-02-28T13:00:45.095Z,24.90
2019-02-28T13:03:12.199Z,23.67
2019-02-28T13:05:39.219Z,21.70
2019-02-28T13:08:06.998Z,21.53
2019-02-28T13:10:34.284Z,22.60
2019-02-28T13:13:06.431Z,23.47
2019-02-28T13:15:29.968Z,18.30
2019-02-28T13:18:00.113Z,20.10
2019-02-28T13:20:32.413Z,20.47
2019-02-28T13:22:59.361Z,16.53
2019-02-28T13:25:25.752Z,17.07
2019-02-28T13:27:52.759Z,21.70
2019-02-28T13:30:21.120Z,23.60
2019-02-28T13:32:48.060Z,23.57
2019-02-28T13:35:17.289Z,31.70
2019-02-28T13:37:44.861Z,24.10
2019-02-28T13:40:12.175Z,16.03
2019-02-28T13:42:40.895Z,21.90
2019-02-28T13:45:14.741Z,20.73
2019-02-28T13:47:41.977Z,21.00
2019-02-28T13:50:10.399Z,19.33
2019-02-28T13:52:37.339Z,20.37
2019-02-28T13:55:06.197Z,27.33
2019-02-28T13:57:33.403Z,19.40
2019-02-28T14:00:00.475Z,19.07
2019-02-28T14:02:29.766Z,21.63
2019-02-28T14:04:58.753Z,18.20
2019-02-28T14:07:29.909Z,24.00
2019-02-28T14:09:58.167Z,20.20
2019-02-28T14:12:24.988Z,23.43
2019-02-28T14:14:52.287Z,25.30
2019-02-28T14:17:19.704Z,24.30
2019-02-28T14:19:46.966Z,29.50
2019-02-28T14:22:14.678Z,21.70
2019-02-28T14:24:42.126Z,21.30
2019-02-28T14:27:10.392Z,27.17
2019-02-28T14:29:38.335Z,25.67
2019-02-28T14:32:07.552Z,33.63
2019-02-28T14:34:35.977Z,29.67
2019-02-28T14:37:03.785Z,30.10
2019-02-28T14:39:31.141Z,26.53
2019-02-28T14:41:58.473Z,31.37
2019-02-28T14:44:27.919Z,30.97
2019-02-28T14:46:54.782Z,28.53
2019-02-28T14:49:21.768Z,34.67
2019-02-28T14:51:48.699Z,30.27
2019-02-28T14:54:15.609Z,30.40
2019-02-28T14:56:43.159Z,33.23
2019-02-28T14:59:10.308Z,33.70
2019-02-28T15:01:37.454Z,32.73
2019-02-28T15:04:08.509Z,31.77
2019-02-28T15:06:35.986Z,37.63
2019-02-28T15:09:10.541Z,33.60
2019-02-28T15:11:37.455Z,29.47
2019-02-28T15:14:05.646Z,35.13
2019-02-28T15:16:33.252Z,30.97
2019-02-28T15:19:00.169Z,34.57
2019-02-28T15:21:27.185Z,31.60
2019-02-28T15:23:54.193Z,33.37
2019-02-28T15:26:21.137Z,30.43
2019-02-28T15:28:48.761Z,35.70
2019-02-28T15:31:16.425Z,34.10
2019-02-28T15:33:43.795Z,36.00
2019-02-28T15:36:11.182Z,32.50
2019-02-28T15:38:38.613Z,32.23
2019-02-28T15:41:05.904Z,36.63
2019-02-28T15:43:32.992Z,33.43
2019-02-28T15:46:00.036Z,32.20
2019-02-28T15:48:27.050Z,34.93
2019-02-28T15:50:54.254Z,31.57
2019-02-28T15:53:21.248Z,32.23
2019-02-28T15:55:48.419Z,32.60
2019-02-28T15:58:16.699Z,34.70
2019-02-28T16:00:44.085Z,29.57
2019-02-28T16:03:13.500Z,29.80
2019-02-28T16:05:44.074Z,36.53
2019-02-28T16:08:10.370Z,36.47
2019-02-28T16:10:37.620Z,35.50
2019-02-28T16:13:05.801Z,34.40
2019-02-28T16:15:32.829Z,31.80
2019-02-28T16:17:59.986Z,33.80
2019-02-28T16:20:28.525Z,36.73
2019-02-28T16:22:56.121Z,34.00
2019-02-28T16:25:28.105Z,33.70
2019-02-28T16:27:55.061Z,42.40
2019-02-28T16:30:22.118Z,32.80
2019-02-28T16:32:50.152Z,33.53
2019-02-28T16:35:17.229Z,36.47
2019-02-28T16:37:44.243Z,36.77
2019-02-28T16:40:13.109Z,40.30
2019-02-28T16:42:40.134Z,31.20
2019-02-28T16:45:11.441Z,32.53
2019-02-28T16:47:38.370Z,32.03
2019-02-28T16:50:05.842Z,33.10
2019-02-28T16:52:32.871Z,31.20
2019-02-28T16:54:59.826Z,32.40
2019-02-28T16:57:26.802Z,27.33
2019-02-28T16:59:53.922Z,26.77
2019-02-28T17:02:20.850Z,29.50
2019-02-28T17:04:48.632Z,30.80
2019-02-28T17:07:16.756Z,27.23
2019-02-28T17:09:43.792Z,28.60
2019-02-28T17:12:15.652Z,55.37
2019-02-28T17:14:48.072Z,24.43
2019-02-28T17:17:14.027Z,31.10
2019-02-28T17:19:41.422Z,24.10
2019-02-28T17:22:08.774Z,25.87
2019-02-28T17:24:35.744Z,21.63
2019-02-28T17:27:06.341Z,19.70
2019-02-28T17:29:48.038Z,22.73
2019-02-28T17:32:14.474Z,18.00
2019-02-28T17:34:41.588Z,19.13
2019-02-28T17:37:08.593Z,18.50
2019-02-28T17:39:35.694Z,17.73
2019-02-28T17:42:08.617Z,15.80
2019-02-28T17:45:00.673Z,15.00
2019-02-28T17:48:19.063Z,11.90
2019-02-28T17:51:18.845Z,10.97
2019-02-28T17:54:24.831Z,13.87
2019-02-28T17:57:37.303Z,12.03
2019-02-28T18:00:33.960Z,12.33
2019-02-28T18:03:50.150Z,12.43
2019-02-28T18:06:48.563Z,11.13
2019-02-28T18:09:28.106Z,8.70
2019-02-28T18:12:29.012Z,15.00
2019-02-28T18:15:33.556Z,7.80
2019-02-28T18:18:11.009Z,7.60
2019-02-28T18:21:17.461Z,10.33
2019-02-28T18:24:07.847Z,8.20
2019-02-28T18:27:17.338Z,9.10
2019-02-28T18:30:35.142Z,8.10
2019-02-28T18:33:03.207Z,10.80
2019-02-28T18:35:32.568Z,10.33
2019-02-28T18:38:00.822Z,10.50
2019-02-28T18:40:28.215Z,8.67
2019-02-28T18:42:55.267Z,10.83
2019-02-28T18:45:22.534Z,11.10
2019-02-28T18:47:49.565Z,8.50
2019-02-28T18:50:16.767Z,11.33
2019-02-28T18:52:43.782Z,10.57
2019-02-28T18:55:10.833Z,14.03
2019-02-28T18:57:37.868Z,11.37
2019-02-28T19:00:06.245Z,9.73
2019-02-28T19:02:33.282Z,12.83
2019-02-28T19:05:00.294Z,10.80
2019-02-28T19:07:27.862Z,13.90
2019-02-28T19:09:55.872Z,11.20
2019-02-28T19:12:23.014Z,11.43
2019-02-28T19:14:50.256Z,14.97
2019-02-28T19:17:17.366Z,16.90
2019-02-28T19:19:44.634Z,12.67
2019-02-28T19:22:11.656Z,17.07
2019-02-28T19:24:38.710Z,12.37
2019-02-28T19:27:05.890Z,15.47
2019-02-28T19:29:32.869Z,14.63
2019-02-28T19:31:59.801Z,14.27
2019-02-28T19:34:26.882Z,16.20
2019-02-28T19:36:54.177Z,14.23
2019-02-28T19:39:21.193Z,16.40
2019-02-28T19:41:48.198Z,15.70
2019-02-28T19:44:15.610Z,17.63
2019-02-28T19:46:42.523Z,14.97
2019-02-28T19:49:17.260Z,14.07
2019-02-28T19:51:44.382Z,21.07
2019-02-28T19:54:11.278Z,17.30
2019-02-28T19:56:38.486Z,15.33
2019-02-28T19:59:05.529Z,17.97
2019-02-28T20:01:32.629Z,16.33
2019-02-28T20:03:59.521Z,10.53
2019-02-28T20:06:26.416Z,14.97
2019-02-28T20:08:53.443Z,12.73
2019-02-28T20:11:20.664Z,16.43
2019-02-28T20:13:47.827Z,17.80
2019-02-28T20:16:16.206Z,17.03
2019-02-28T20:18:43.342Z,18.40
2019-02-28T20:21:10.561Z,15.73
2019-02-28T20:23:37.595Z,15.77
2019-02-28T20:26:04.530Z,15.23
2019-02-28T20:28:31.488Z,14.37
2019-02-28T20:30:58.717Z,13.93
2019-02-28T20:33:25.645Z,19.97
2019-02-28T20:35:52.585Z,17.30
2019-02-28T20:38:19.960Z,17.13
2019-02-28T20:40:47.302Z,20.37
2019-02-28T20:43:14.304Z,20.23
2019-02-28T20:45:41.501Z,20.67
2019-02-28T20:48:08.839Z,20.43
2019-02-28T20:50:38.366Z,18.27
2019-02-28T20:53:05.481Z,16.70
2019-02-28T20:55:32.917Z,20.10
2019-02-28T20:58:03.250Z,19.00
2019-02-28T21:00:30.165Z,19.27
2019-02-28T21:02:57.160Z,16.97
2019-02-28T21:05:24.267Z,19.37
2019-02-28T21:07:51.497Z,19.17
2019-02-28T21:10:21.772Z,14.60
2019-02-28T21:13:02.725Z,21.77
2019-02-28T21:15:29.752Z,20.47
2019-02-28T21:17:59.428Z,27.97
2019-02-28T21:20:26.772Z,17.03
2019-02-28T21:22:53.781Z,18.20
2019-02-28T21:25:20.708Z,19.47
2019-02-28T21:27:47.965Z,21.40
2019-02-28T21:30:17.132Z,15.30
2019-02-28T21:32:44.437Z,20.23
2019-02-28T21:35:14.753Z,22.23
2019-02-28T21:37:41.968Z,18.77
2019-02-28T21:40:09.867Z,22.73
2019-02-28T21:42:36.890Z,17.93
2019-02-28T21:45:05.226Z,24.80
2019-02-28T21:47:32.632Z,21.40
2019-02-28T21:49:59.860Z,23.30
2019-02-28T21:52:26.845Z,18.73
2019-02-28T21:54:53.811Z,19.27
2019-02-28T21:57:22.816Z,22.30
2019-02-28T21:59:49.972Z,19.20
2019-02-28T22:02:18.688Z,16.23
2019-02-28T22:04:45.800Z,17.20
2019-02-28T22:07:12.857Z,18.13
2019-02-28T22:09:42.304Z,18.40
2019-02-28T22:12:09.365Z,16.80
2019-02-28T22:14:36.312Z,20.67
2019-02-28T22:17:03.248Z,19.23
2019-02-28T22:19:30.217Z,18.80
2019-02-28T22:21:57.124Z,19.93
2019-02-28T22:24:24.009Z,16.43
2019-02-28T22:26:50.976Z,23.37
2019-02-28T22:29:17.928Z,20.47
2019-02-28T22:31:46.857Z,16.50
2019-02-28T22:34:15.751Z,15.57
2019-02-28T22:36:43.144Z,22.93
2019-02-28T22:39:10.307Z,19.77
2019-02-28T22:41:37.257Z,16.77
2019-02-28T22:44:04.265Z,25.73
2019-02-28T22:46:31.831Z,18.80
2019-02-28T22:48:58.860Z,27.00
2019-02-28T22:51:27.875Z,18.97
2019-02-28T22:53:54.967Z,16.40
2019-02-28T22:56:22.009Z,20.13
2019-02-28T22:58:48.913Z,18.27
2019-02-28T23:01:18.936Z,17.20
2019-02-28T23:03:45.857Z,16.40
2019-02-28T23:06:12.807Z,13.13
2019-02-28T23:08:39.705Z,20.60
2019-02-28T23:11:06.708Z,13.73
2019-02-28T23:13:33.653Z,22.93
2019-02-28T23:16:00.654Z,19.03
2019-02-28T23:18:27.695Z,15.97
2019-02-28T23:20:54.687Z,18.77
2019-02-28T23:23:21.728Z,15.40
2019-02-28T23:25:48.679Z,18.37
2019-02-28T23:28:32.924Z,18.30
2019-02-28T23:31:37.839Z,19.17
2019-02-28T23:34:10.301Z,12.70
2019-02-28T23:36:37.232Z,15.33
2019-02-28T23:39:05.844Z,16.80
2019-02-28T23:41:32.807Z,20.60
2019-02-28T23:43:59.875Z,15.40
2019-02-28T23:46:27.580Z,16.10
2019-02-28T23:48:54.590Z,16.17
2019-02-28T23:51:21.540Z,17.83
2019-02-28T23:53:48.512Z,17.17
2019-02-28T23:56:15.517Z,16.07
2019-02-28T23:58:42.457Z,19.33
